sensor_id;sensor_type;location;lat;lon;timestamp;P1;durP1;ratioP1;P2;durP2;ratioP2
22129;SDS011;11231;50.746;4.272;2023-04-06T00:01:56;29.07;;;12.87;;
22129;SDS011;11231;50.746;4.272;2023-04-06T00:04:21;25.00;;;13.23;;
22129;SDS011;11231;50.746;4.272;2023-04-06T00:06:47;25.77;;;11.60;;
22129;SDS011;11231;50.746;4.272;2023-04-06T00:09:13;24.80;;;13.07;;
22129;SDS011;11231;50.746;4.272;2023-04-06T00:11:39;28.53;;;12.93;;
22129;SDS011;11231;50.746;4.272;2023-04-06T00:14:04;25.50;;;12.70;;
22129;SDS011;11231;50.746;4.272;2023-04-06T00:16:30;25.07;;;12.47;;
22129;SDS011;11231;50.746;4.272;2023-04-06T00:18:56;23.10;;;11.70;;
22129;SDS011;11231;50.746;4.272;2023-04-06T00:21:21;25.23;;;12.83;;
22129;SDS011;11231;50.746;4.272;2023-04-06T00:23:47;25.73;;;12.23;;
22129;SDS011;11231;50.746;4.272;2023-04-06T00:26:13;22.53;;;11.90;;
22129;SDS011;11231;50.746;4.272;2023-04-06T00:28:44;27.97;;;13.17;;
22129;SDS011;11231;50.746;4.272;2023-04-06T00:31:10;27.10;;;12.90;;
22129;SDS011;11231;50.746;4.272;2023-04-06T00:33:36;26.50;;;12.73;;
22129;SDS011;11231;50.746;4.272;2023-04-06T00:36:01;25.47;;;12.23;;
22129;SDS011;11231;50.746;4.272;2023-04-06T00:38:27;24.67;;;13.37;;
22129;SDS011;11231;50.746;4.272;2023-04-06T00:40:53;23.33;;;12.33;;
22129;SDS011;11231;50.746;4.272;2023-04-06T00:43:19;23.67;;;12.50;;
22129;SDS011;11231;50.746;4.272;2023-04-06T00:45:45;25.53;;;11.60;;
22129;SDS011;11231;50.746;4.272;2023-04-06T00:48:11;24.97;;;12.50;;
22129;SDS011;11231;50.746;4.272;2023-04-06T00:50:37;22.67;;;11.67;;
22129;SDS011;11231;50.746;4.272;2023-04-06T00:53:02;26.17;;;12.83;;
22129;SDS011;11231;50.746;4.272;2023-04-06T00:55:29;25.60;;;12.67;;
22129;SDS011;11231;50.746;4.272;2023-04-06T00:57:57;23.67;;;12.53;;
22129;SDS011;11231;50.746;4.272;2023-04-06T01:00:26;28.43;;;12.93;;
22129;SDS011;11231;50.746;4.272;2023-04-06T01:02:56;22.20;;;11.67;;
22129;SDS011;11231;50.746;4.272;2023-04-06T01:05:30;22.40;;;12.30;;
22129;SDS011;11231;50.746;4.272;2023-04-06T01:08:07;24.10;;;12.53;;
22129;SDS011;11231;50.746;4.272;2023-04-06T01:10:32;27.93;;;13.40;;
22129;SDS011;11231;50.746;4.272;2023-04-06T01:13:09;21.57;;;11.90;;
22129;SDS011;11231;50.746;4.272;2023-04-06T01:15:45;24.97;;;12.70;;
22129;SDS011;11231;50.746;4.272;2023-04-06T01:18:15;24.90;;;12.90;;
22129;SDS011;11231;50.746;4.272;2023-04-06T01:20:49;24.13;;;12.43;;
22129;SDS011;11231;50.746;4.272;2023-04-06T01:23:16;25.50;;;13.10;;
22129;SDS011;11231;50.746;4.272;2023-04-06T01:25:45;25.23;;;12.50;;
22129;SDS011;11231;50.746;4.272;2023-04-06T01:28:11;28.03;;;13.07;;
22129;SDS011;11231;50.746;4.272;2023-04-06T01:30:57;23.03;;;11.93;;
22129;SDS011;11231;50.746;4.272;2023-04-06T01:33:38;24.43;;;11.23;;
22129;SDS011;11231;50.746;4.272;2023-04-06T01:36:07;23.00;;;12.20;;
22129;SDS011;11231;50.746;4.272;2023-04-06T01:38:33;23.87;;;12.70;;
22129;SDS011;11231;50.746;4.272;2023-04-06T01:41:00;22.87;;;12.50;;
22129;SDS011;11231;50.746;4.272;2023-04-06T01:43:31;24.80;;;12.87;;
22129;SDS011;11231;50.746;4.272;2023-04-06T01:46:06;25.40;;;12.80;;
22129;SDS011;11231;50.746;4.272;2023-04-06T01:48:38;23.87;;;12.07;;
22129;SDS011;11231;50.746;4.272;2023-04-06T01:51:13;24.67;;;13.00;;
22129;SDS011;11231;50.746;4.272;2023-04-06T01:53:47;23.80;;;11.50;;
22129;SDS011;11231;50.746;4.272;2023-04-06T01:56:14;25.50;;;11.70;;
22129;SDS011;11231;50.746;4.272;2023-04-06T01:58:46;23.50;;;12.10;;
22129;SDS011;11231;50.746;4.272;2023-04-06T02:01:14;26.30;;;12.53;;
22129;SDS011;11231;50.746;4.272;2023-04-06T02:03:54;23.40;;;12.40;;
22129;SDS011;11231;50.746;4.272;2023-04-06T02:06:20;24.43;;;12.73;;
22129;SDS011;11231;50.746;4.272;2023-04-06T02:08:47;22.47;;;11.57;;
22129;SDS011;11231;50.746;4.272;2023-04-06T02:11:13;24.33;;;11.93;;
22129;SDS011;11231;50.746;4.272;2023-04-06T02:13:44;23.37;;;11.67;;
22129;SDS011;11231;50.746;4.272;2023-04-06T02:16:10;23.80;;;11.93;;
22129;SDS011;11231;50.746;4.272;2023-04-06T02:18:36;28.53;;;12.63;;
22129;SDS011;11231;50.746;4.272;2023-04-06T02:21:02;24.93;;;12.23;;
22129;SDS011;11231;50.746;4.272;2023-04-06T02:23:27;26.10;;;12.87;;
22129;SDS011;11231;50.746;4.272;2023-04-06T02:25:55;26.60;;;12.57;;
22129;SDS011;11231;50.746;4.272;2023-04-06T02:28:21;22.10;;;11.67;;
22129;SDS011;11231;50.746;4.272;2023-04-06T02:30:47;22.40;;;11.93;;
22129;SDS011;11231;50.746;4.272;2023-04-06T02:33:13;23.87;;;12.33;;
22129;SDS011;11231;50.746;4.272;2023-04-06T02:35:45;22.90;;;11.47;;
22129;SDS011;11231;50.746;4.272;2023-04-06T02:38:11;24.37;;;12.17;;
22129;SDS011;11231;50.746;4.272;2023-04-06T02:40:36;23.40;;;11.77;;
22129;SDS011;11231;50.746;4.272;2023-04-06T02:43:28;23.40;;;11.60;;
22129;SDS011;11231;50.746;4.272;2023-04-06T02:46:04;22.63;;;11.47;;
22129;SDS011;11231;50.746;4.272;2023-04-06T02:48:33;24.10;;;11.70;;
22129;SDS011;11231;50.746;4.272;2023-04-06T02:51:01;24.17;;;11.37;;
22129;SDS011;11231;50.746;4.272;2023-04-06T02:53:27;23.57;;;11.17;;
22129;SDS011;11231;50.746;4.272;2023-04-06T02:55:53;23.67;;;11.87;;
22129;SDS011;11231;50.746;4.272;2023-04-06T02:58:18;24.70;;;10.90;;
22129;SDS011;11231;50.746;4.272;2023-04-06T03:00:50;21.13;;;11.20;;
22129;SDS011;11231;50.746;4.272;2023-04-06T03:03:19;23.77;;;11.43;;
22129;SDS011;11231;50.746;4.272;2023-04-06T03:05:46;22.73;;;11.73;;
22129;SDS011;11231;50.746;4.272;2023-04-06T03:08:14;26.03;;;11.57;;
22129;SDS011;11231;50.746;4.272;2023-04-06T03:10:43;24.77;;;11.97;;
22129;SDS011;11231;50.746;4.272;2023-04-06T03:13:08;24.00;;;12.07;;
22129;SDS011;11231;50.746;4.272;2023-04-06T03:15:46;24.47;;;11.43;;
22129;SDS011;11231;50.746;4.272;2023-04-06T03:18:17;26.27;;;11.70;;
22129;SDS011;11231;50.746;4.272;2023-04-06T03:20:47;24.00;;;12.07;;
22129;SDS011;11231;50.746;4.272;2023-04-06T03:23:14;23.40;;;12.17;;
22129;SDS011;11231;50.746;4.272;2023-04-06T03:25:42;24.00;;;11.77;;
22129;SDS011;11231;50.746;4.272;2023-04-06T03:28:12;25.83;;;12.27;;
22129;SDS011;11231;50.746;4.272;2023-04-06T03:30:47;23.40;;;12.27;;
22129;SDS011;11231;50.746;4.272;2023-04-06T03:33:17;20.83;;;11.57;;
22129;SDS011;11231;50.746;4.272;2023-04-06T03:35:51;21.50;;;11.77;;
22129;SDS011;11231;50.746;4.272;2023-04-06T03:38:17;24.03;;;12.50;;
22129;SDS011;11231;50.746;4.272;2023-04-06T03:40:43;23.93;;;12.90;;
22129;SDS011;11231;50.746;4.272;2023-04-06T03:43:09;27.17;;;12.43;;
22129;SDS011;11231;50.746;4.272;2023-04-06T03:45:36;27.13;;;13.87;;
22129;SDS011;11231;50.746;4.272;2023-04-06T03:48:04;26.77;;;13.33;;
22129;SDS011;11231;50.746;4.272;2023-04-06T03:50:33;25.50;;;13.50;;
22129;SDS011;11231;50.746;4.272;2023-04-06T03:52:59;25.37;;;13.30;;
22129;SDS011;11231;50.746;4.272;2023-04-06T03:55:28;26.07;;;13.43;;
22129;SDS011;11231;50.746;4.272;2023-04-06T03:57:55;24.63;;;13.80;;
22129;SDS011;11231;50.746;4.272;2023-04-06T04:00:21;30.67;;;13.07;;
22129;SDS011;11231;50.746;4.272;2023-04-06T04:02:46;22.07;;;13.00;;
22129;SDS011;11231;50.746;4.272;2023-04-06T04:05:12;26.80;;;13.90;;
22129;SDS011;11231;50.746;4.272;2023-04-06T04:07:38;24.27;;;13.30;;
22129;SDS011;11231;50.746;4.272;2023-04-06T04:10:06;24.80;;;13.00;;
22129;SDS011;11231;50.746;4.272;2023-04-06T04:12:32;25.40;;;13.33;;
22129;SDS011;11231;50.746;4.272;2023-04-06T04:14:58;28.20;;;13.93;;
22129;SDS011;11231;50.746;4.272;2023-04-06T04:17:24;26.10;;;13.57;;
22129;SDS011;11231;50.746;4.272;2023-04-06T04:19:50;27.17;;;13.80;;
22129;SDS011;11231;50.746;4.272;2023-04-06T04:22:15;28.37;;;14.87;;
22129;SDS011;11231;50.746;4.272;2023-04-06T04:24:42;25.70;;;14.20;;
22129;SDS011;11231;50.746;4.272;2023-04-06T04:27:08;26.67;;;14.40;;
22129;SDS011;11231;50.746;4.272;2023-04-06T04:29:34;28.37;;;14.83;;
22129;SDS011;11231;50.746;4.272;2023-04-06T04:32:04;25.93;;;14.47;;
22129;SDS011;11231;50.746;4.272;2023-04-06T04:34:30;26.07;;;14.60;;
22129;SDS011;11231;50.746;4.272;2023-04-06T04:36:57;24.83;;;14.33;;
22129;SDS011;11231;50.746;4.272;2023-04-06T04:39:34;25.43;;;14.77;;
22129;SDS011;11231;50.746;4.272;2023-04-06T04:42:04;25.23;;;14.23;;
22129;SDS011;11231;50.746;4.272;2023-04-06T04:44:32;26.87;;;15.13;;
22129;SDS011;11231;50.746;4.272;2023-04-06T04:46:59;24.40;;;13.90;;
22129;SDS011;11231;50.746;4.272;2023-04-06T04:49:35;26.07;;;14.23;;
22129;SDS011;11231;50.746;4.272;2023-04-06T04:52:01;25.83;;;13.90;;
22129;SDS011;11231;50.746;4.272;2023-04-06T04:54:40;24.70;;;14.37;;
22129;SDS011;11231;50.746;4.272;2023-04-06T04:57:10;24.67;;;14.87;;
22129;SDS011;11231;50.746;4.272;2023-04-06T04:59:42;25.90;;;14.30;;
22129;SDS011;11231;50.746;4.272;2023-04-06T05:02:16;27.77;;;14.80;;
22129;SDS011;11231;50.746;4.272;2023-04-06T05:04:54;26.73;;;14.53;;
22129;SDS011;11231;50.746;4.272;2023-04-06T05:07:23;28.60;;;14.20;;
22129;SDS011;11231;50.746;4.272;2023-04-06T05:09:52;28.27;;;14.53;;
22129;SDS011;11231;50.746;4.272;2023-04-06T05:12:19;29.57;;;15.23;;
22129;SDS011;11231;50.746;4.272;2023-04-06T05:14:54;26.87;;;14.20;;
22129;SDS011;11231;50.746;4.272;2023-04-06T05:17:21;28.43;;;15.80;;
22129;SDS011;11231;50.746;4.272;2023-04-06T05:19:48;25.43;;;14.77;;
22129;SDS011;11231;50.746;4.272;2023-04-06T05:22:20;28.47;;;15.57;;
22129;SDS011;11231;50.746;4.272;2023-04-06T05:24:55;31.00;;;14.77;;
22129;SDS011;11231;50.746;4.272;2023-04-06T05:27:20;29.10;;;14.57;;
22129;SDS011;11231;50.746;4.272;2023-04-06T05:29:47;30.17;;;15.50;;
22129;SDS011;11231;50.746;4.272;2023-04-06T05:32:14;29.83;;;14.60;;
22129;SDS011;11231;50.746;4.272;2023-04-06T05:34:41;28.47;;;15.77;;
22129;SDS011;11231;50.746;4.272;2023-04-06T05:37:06;29.80;;;15.87;;
22129;SDS011;11231;50.746;4.272;2023-04-06T05:39:32;27.17;;;15.10;;
22129;SDS011;11231;50.746;4.272;2023-04-06T05:42:01;29.10;;;15.77;;
22129;SDS011;11231;50.746;4.272;2023-04-06T05:44:49;31.50;;;16.17;;
22129;SDS011;11231;50.746;4.272;2023-04-06T05:47:16;29.53;;;15.60;;
22129;SDS011;11231;50.746;4.272;2023-04-06T05:49:44;31.37;;;15.30;;
22129;SDS011;11231;50.746;4.272;2023-04-06T05:52:16;28.83;;;16.13;;
22129;SDS011;11231;50.746;4.272;2023-04-06T05:54:45;30.00;;;15.33;;
22129;SDS011;11231;50.746;4.272;2023-04-06T05:57:12;27.83;;;15.27;;
22129;SDS011;11231;50.746;4.272;2023-04-06T05:59:38;33.23;;;15.87;;
22129;SDS011;11231;50.746;4.272;2023-04-06T06:02:05;29.63;;;15.50;;
22129;SDS011;11231;50.746;4.272;2023-04-06T06:04:34;33.80;;;16.20;;
22129;SDS011;11231;50.746;4.272;2023-04-06T06:07:00;31.67;;;16.33;;
22129;SDS011;11231;50.746;4.272;2023-04-06T06:09:33;29.60;;;16.87;;
22129;SDS011;11231;50.746;4.272;2023-04-06T06:12:13;31.80;;;17.13;;
22129;SDS011;11231;50.746;4.272;2023-04-06T06:14:39;30.73;;;17.17;;
22129;SDS011;11231;50.746;4.272;2023-04-06T06:17:05;28.53;;;16.43;;
22129;SDS011;11231;50.746;4.272;2023-04-06T06:19:33;34.57;;;17.97;;
22129;SDS011;11231;50.746;4.272;2023-04-06T06:22:02;33.47;;;17.90;;
22129;SDS011;11231;50.746;4.272;2023-04-06T06:24:28;32.97;;;16.53;;
22129;SDS011;11231;50.746;4.272;2023-04-06T06:26:56;29.43;;;17.30;;
22129;SDS011;11231;50.746;4.272;2023-04-06T06:29:25;32.83;;;17.73;;
22129;SDS011;11231;50.746;4.272;2023-04-06T06:31:51;30.50;;;18.10;;
22129;SDS011;11231;50.746;4.272;2023-04-06T06:34:17;34.77;;;18.37;;
22129;SDS011;11231;50.746;4.272;2023-04-06T06:36:42;32.47;;;17.63;;
22129;SDS011;11231;50.746;4.272;2023-04-06T06:39:11;30.90;;;17.43;;
22129;SDS011;11231;50.746;4.272;2023-04-06T06:41:37;33.77;;;17.87;;
22129;SDS011;11231;50.746;4.272;2023-04-06T06:44:04;32.47;;;17.93;;
22129;SDS011;11231;50.746;4.272;2023-04-06T06:46:30;30.43;;;17.57;;
22129;SDS011;11231;50.746;4.272;2023-04-06T06:48:56;34.20;;;17.00;;
22129;SDS011;11231;50.746;4.272;2023-04-06T06:51:23;30.17;;;16.70;;
22129;SDS011;11231;50.746;4.272;2023-04-06T06:53:51;33.10;;;17.73;;
22129;SDS011;11231;50.746;4.272;2023-04-06T06:56:17;32.83;;;17.47;;
22129;SDS011;11231;50.746;4.272;2023-04-06T06:58:42;30.90;;;17.07;;
22129;SDS011;11231;50.746;4.272;2023-04-06T07:01:08;27.30;;;15.47;;
22129;SDS011;11231;50.746;4.272;2023-04-06T07:03:34;30.63;;;15.90;;
22129;SDS011;11231;50.746;4.272;2023-04-06T07:06:00;29.70;;;15.83;;
22129;SDS011;11231;50.746;4.272;2023-04-06T07:08:26;30.93;;;15.80;;
22129;SDS011;11231;50.746;4.272;2023-04-06T07:10:52;28.10;;;15.33;;
22129;SDS011;11231;50.746;4.272;2023-04-06T07:13:18;29.10;;;15.03;;
22129;SDS011;11231;50.746;4.272;2023-04-06T07:15:50;27.87;;;14.90;;
22129;SDS011;11231;50.746;4.272;2023-04-06T07:18:16;25.37;;;13.97;;
22129;SDS011;11231;50.746;4.272;2023-04-06T07:20:46;29.73;;;15.23;;
22129;SDS011;11231;50.746;4.272;2023-04-06T07:23:13;28.47;;;15.17;;
22129;SDS011;11231;50.746;4.272;2023-04-06T07:25:40;26.40;;;14.33;;
22129;SDS011;11231;50.746;4.272;2023-04-06T07:28:08;31.23;;;15.53;;
22129;SDS011;11231;50.746;4.272;2023-04-06T07:30:34;24.50;;;14.13;;
22129;SDS011;11231;50.746;4.272;2023-04-06T07:33:02;28.47;;;14.47;;
22129;SDS011;11231;50.746;4.272;2023-04-06T07:35:29;27.57;;;14.33;;
22129;SDS011;11231;50.746;4.272;2023-04-06T07:37:56;29.03;;;14.87;;
22129;SDS011;11231;50.746;4.272;2023-04-06T07:40:23;27.53;;;13.77;;
22129;SDS011;11231;50.746;4.272;2023-04-06T07:42:49;26.70;;;13.70;;
22129;SDS011;11231;50.746;4.272;2023-04-06T07:45:15;26.53;;;13.10;;
22129;SDS011;11231;50.746;4.272;2023-04-06T07:47:42;28.20;;;13.63;;
22129;SDS011;11231;50.746;4.272;2023-04-06T07:50:08;28.13;;;13.80;;
22129;SDS011;11231;50.746;4.272;2023-04-06T07:52:36;26.47;;;13.87;;
22129;SDS011;11231;50.746;4.272;2023-04-06T07:55:02;28.67;;;14.70;;
22129;SDS011;11231;50.746;4.272;2023-04-06T07:57:27;30.30;;;14.20;;
22129;SDS011;11231;50.746;4.272;2023-04-06T07:59:53;27.03;;;14.13;;
22129;SDS011;11231;50.746;4.272;2023-04-06T08:02:19;27.27;;;14.37;;
22129;SDS011;11231;50.746;4.272;2023-04-06T08:04:45;28.30;;;13.30;;
22129;SDS011;11231;50.746;4.272;2023-04-06T08:07:11;24.43;;;13.07;;
22129;SDS011;11231;50.746;4.272;2023-04-06T08:09:37;24.77;;;12.70;;
22129;SDS011;11231;50.746;4.272;2023-04-06T08:12:03;28.23;;;13.10;;
22129;SDS011;11231;50.746;4.272;2023-04-06T08:14:28;27.53;;;12.63;;
22129;SDS011;11231;50.746;4.272;2023-04-06T08:16:54;30.10;;;12.27;;
22129;SDS011;11231;50.746;4.272;2023-04-06T08:19:20;26.60;;;12.00;;
22129;SDS011;11231;50.746;4.272;2023-04-06T08:21:46;24.60;;;12.30;;
22129;SDS011;11231;50.746;4.272;2023-04-06T08:24:12;24.83;;;11.63;;
22129;SDS011;11231;50.746;4.272;2023-04-06T08:26:39;23.00;;;11.40;;
22129;SDS011;11231;50.746;4.272;2023-04-06T08:29:04;22.60;;;10.80;;
22129;SDS011;11231;50.746;4.272;2023-04-06T08:31:33;23.63;;;11.40;;
22129;SDS011;11231;50.746;4.272;2023-04-06T08:33:59;28.30;;;12.43;;
22129;SDS011;11231;50.746;4.272;2023-04-06T08:36:25;26.07;;;12.53;;
22129;SDS011;11231;50.746;4.272;2023-04-06T08:38:51;29.00;;;13.23;;
22129;SDS011;11231;50.746;4.272;2023-04-06T08:41:17;26.17;;;12.57;;
22129;SDS011;11231;50.746;4.272;2023-04-06T08:43:44;21.97;;;12.60;;
22129;SDS011;11231;50.746;4.272;2023-04-06T08:46:14;24.63;;;12.10;;
22129;SDS011;11231;50.746;4.272;2023-04-06T08:48:41;23.47;;;12.20;;
22129;SDS011;11231;50.746;4.272;2023-04-06T08:51:09;25.37;;;12.60;;
22129;SDS011;11231;50.746;4.272;2023-04-06T08:53:35;26.73;;;12.90;;
22129;SDS011;11231;50.746;4.272;2023-04-06T08:56:02;26.20;;;12.63;;
22129;SDS011;11231;50.746;4.272;2023-04-06T08:58:32;25.00;;;13.50;;
22129;SDS011;11231;50.746;4.272;2023-04-06T09:01:00;27.40;;;13.10;;
22129;SDS011;11231;50.746;4.272;2023-04-06T09:03:28;26.97;;;13.50;;
22129;SDS011;11231;50.746;4.272;2023-04-06T09:05:55;25.50;;;12.87;;
22129;SDS011;11231;50.746;4.272;2023-04-06T09:08:21;25.97;;;12.93;;
22129;SDS011;11231;50.746;4.272;2023-04-06T09:10:47;23.73;;;12.90;;
22129;SDS011;11231;50.746;4.272;2023-04-06T09:13:14;25.83;;;12.57;;
22129;SDS011;11231;50.746;4.272;2023-04-06T09:15:39;25.17;;;12.60;;
22129;SDS011;11231;50.746;4.272;2023-04-06T09:18:05;23.13;;;12.40;;
22129;SDS011;11231;50.746;4.272;2023-04-06T09:20:33;26.23;;;13.37;;
22129;SDS011;11231;50.746;4.272;2023-04-06T09:22:58;24.10;;;12.23;;
22129;SDS011;11231;50.746;4.272;2023-04-06T09:25:24;22.20;;;12.07;;
22129;SDS011;11231;50.746;4.272;2023-04-06T09:28:02;25.33;;;12.40;;
22129;SDS011;11231;50.746;4.272;2023-04-06T09:30:29;21.63;;;11.53;;
22129;SDS011;11231;50.746;4.272;2023-04-06T09:32:56;23.97;;;11.53;;
22129;SDS011;11231;50.746;4.272;2023-04-06T09:35:23;22.97;;;11.50;;
22129;SDS011;11231;50.746;4.272;2023-04-06T09:37:51;20.67;;;9.93;;
22129;SDS011;11231;50.746;4.272;2023-04-06T09:40:17;20.93;;;11.20;;
22129;SDS011;11231;50.746;4.272;2023-04-06T09:42:45;23.13;;;11.30;;
22129;SDS011;11231;50.746;4.272;2023-04-06T09:45:12;20.57;;;11.33;;
22129;SDS011;11231;50.746;4.272;2023-04-06T09:47:39;21.07;;;10.37;;
22129;SDS011;11231;50.746;4.272;2023-04-06T09:50:08;22.63;;;10.40;;
22129;SDS011;11231;50.746;4.272;2023-04-06T09:55:05;21.27;;;10.30;;
22129;SDS011;11231;50.746;4.272;2023-04-06T09:58:16;22.07;;;10.70;;
22129;SDS011;11231;50.746;4.272;2023-04-06T10:00:25;22.23;;;10.70;;
22129;SDS011;11231;50.746;4.272;2023-04-06T10:05:55;20.53;;;10.60;;
22129;SDS011;11231;50.746;4.272;2023-04-06T10:08:27;23.83;;;10.80;;
22129;SDS011;11231;50.746;4.272;2023-04-06T10:10:54;19.67;;;10.63;;
22129;SDS011;11231;50.746;4.272;2023-04-06T10:13:21;21.70;;;11.13;;
22129;SDS011;11231;50.746;4.272;2023-04-06T10:15:49;19.83;;;10.50;;
22129;SDS011;11231;50.746;4.272;2023-04-06T10:18:17;19.83;;;11.03;;
22129;SDS011;11231;50.746;4.272;2023-04-06T10:21:17;20.17;;;10.97;;
22129;SDS011;11231;50.746;4.272;2023-04-06T10:23:41;20.40;;;11.70;;
22129;SDS011;11231;50.746;4.272;2023-04-06T10:26:13;24.73;;;11.70;;
22129;SDS011;11231;50.746;4.272;2023-04-06T10:28:41;24.60;;;11.37;;
22129;SDS011;11231;50.746;4.272;2023-04-06T10:31:09;23.00;;;11.90;;
22129;SDS011;11231;50.746;4.272;2023-04-06T10:33:35;20.20;;;10.90;;
22129;SDS011;11231;50.746;4.272;2023-04-06T10:36:13;21.87;;;11.37;;
22129;SDS011;11231;50.746;4.272;2023-04-06T10:38:41;22.33;;;11.30;;
22129;SDS011;11231;50.746;4.272;2023-04-06T10:41:11;20.50;;;11.10;;
22129;SDS011;11231;50.746;4.272;2023-04-06T10:43:38;22.10;;;11.23;;
22129;SDS011;11231;50.746;4.272;2023-04-06T10:46:06;20.20;;;11.27;;
22129;SDS011;11231;50.746;4.272;2023-04-06T10:48:44;22.13;;;11.43;;
22129;SDS011;11231;50.746;4.272;2023-04-06T10:51:14;20.63;;;11.37;;
22129;SDS011;11231;50.746;4.272;2023-04-06T10:53:41;20.67;;;11.73;;
22129;SDS011;11231;50.746;4.272;2023-04-06T10:56:15;23.90;;;12.30;;
22129;SDS011;11231;50.746;4.272;2023-04-06T10:58:45;22.90;;;11.87;;
22129;SDS011;11231;50.746;4.272;2023-04-06T11:01:14;21.83;;;12.23;;
22129;SDS011;11231;50.746;4.272;2023-04-06T11:03:42;20.13;;;11.10;;
22129;SDS011;11231;50.746;4.272;2023-04-06T11:06:21;17.87;;;10.20;;
22129;SDS011;11231;50.746;4.272;2023-04-06T11:08:48;17.30;;;10.80;;
22129;SDS011;11231;50.746;4.272;2023-04-06T11:11:16;19.07;;;11.03;;
22129;SDS011;11231;50.746;4.272;2023-04-06T11:16:17;21.30;;;11.67;;
22129;SDS011;11231;50.746;4.272;2023-04-06T11:18:51;22.50;;;12.20;;
22129;SDS011;11231;50.746;4.272;2023-04-06T11:22:05;21.97;;;11.90;;
22129;SDS011;11231;50.746;4.272;2023-04-06T11:24:23;19.57;;;10.90;;
22129;SDS011;11231;50.746;4.272;2023-04-06T11:26:56;20.40;;;12.07;;
22129;SDS011;11231;50.746;4.272;2023-04-06T11:29:24;20.97;;;12.23;;
22129;SDS011;11231;50.746;4.272;2023-04-06T11:31:53;22.73;;;12.73;;
22129;SDS011;11231;50.746;4.272;2023-04-06T11:34:29;21.87;;;11.07;;
22129;SDS011;11231;50.746;4.272;2023-04-06T11:37:01;21.83;;;12.10;;
22129;SDS011;11231;50.746;4.272;2023-04-06T11:39:31;20.60;;;11.47;;
22129;SDS011;11231;50.746;4.272;2023-04-06T11:42:02;20.23;;;12.23;;
22129;SDS011;11231;50.746;4.272;2023-04-06T11:44:29;23.70;;;12.40;;
22129;SDS011;11231;50.746;4.272;2023-04-06T11:47:04;23.53;;;13.17;;
22129;SDS011;11231;50.746;4.272;2023-04-06T11:49:32;22.37;;;13.07;;
22129;SDS011;11231;50.746;4.272;2023-04-06T11:51:59;25.90;;;13.83;;
22129;SDS011;11231;50.746;4.272;2023-04-06T11:54:44;22.57;;;12.80;;
22129;SDS011;11231;50.746;4.272;2023-04-06T11:57:10;21.70;;;13.50;;
22129;SDS011;11231;50.746;4.272;2023-04-06T11:59:36;21.97;;;13.50;;
22129;SDS011;11231;50.746;4.272;2023-04-06T12:02:02;21.67;;;12.17;;
22129;SDS011;11231;50.746;4.272;2023-04-06T12:04:29;20.87;;;12.53;;
22129;SDS011;11231;50.746;4.272;2023-04-06T12:06:55;21.03;;;12.03;;
22129;SDS011;11231;50.746;4.272;2023-04-06T12:09:21;22.50;;;12.90;;
22129;SDS011;11231;50.746;4.272;2023-04-06T12:11:47;23.57;;;13.17;;
22129;SDS011;11231;50.746;4.272;2023-04-06T12:14:13;21.10;;;12.40;;
22129;SDS011;11231;50.746;4.272;2023-04-06T12:16:39;21.17;;;13.27;;
22129;SDS011;11231;50.746;4.272;2023-04-06T12:19:05;22.93;;;13.07;;
22129;SDS011;11231;50.746;4.272;2023-04-06T12:21:31;21.90;;;12.03;;
22129;SDS011;11231;50.746;4.272;2023-04-06T12:23:59;22.97;;;13.37;;
22129;SDS011;11231;50.746;4.272;2023-04-06T12:26:26;20.90;;;12.83;;
22129;SDS011;11231;50.746;4.272;2023-04-06T12:28:52;23.37;;;13.77;;
22129;SDS011;11231;50.746;4.272;2023-04-06T12:31:18;23.80;;;14.00;;
22129;SDS011;11231;50.746;4.272;2023-04-06T12:33:49;24.77;;;14.63;;
22129;SDS011;11231;50.746;4.272;2023-04-06T12:36:16;22.07;;;12.63;;
22129;SDS011;11231;50.746;4.272;2023-04-06T12:38:49;21.00;;;12.53;;
22129;SDS011;11231;50.746;4.272;2023-04-06T12:41:18;23.90;;;14.27;;
22129;SDS011;11231;50.746;4.272;2023-04-06T12:43:45;23.07;;;13.03;;
22129;SDS011;11231;50.746;4.272;2023-04-06T12:46:11;20.87;;;12.80;;
22129;SDS011;11231;50.746;4.272;2023-04-06T12:48:37;23.43;;;13.83;;
22129;SDS011;11231;50.746;4.272;2023-04-06T12:51:06;25.03;;;14.60;;
22129;SDS011;11231;50.746;4.272;2023-04-06T12:53:32;22.73;;;13.97;;
22129;SDS011;11231;50.746;4.272;2023-04-06T12:55:59;23.43;;;14.67;;
22129;SDS011;11231;50.746;4.272;2023-04-06T12:58:25;24.60;;;14.53;;
22129;SDS011;11231;50.746;4.272;2023-04-06T13:00:55;25.37;;;15.17;;
22129;SDS011;11231;50.746;4.272;2023-04-06T13:03:22;25.60;;;15.57;;
22129;SDS011;11231;50.746;4.272;2023-04-06T13:05:51;26.27;;;15.20;;
22129;SDS011;11231;50.746;4.272;2023-04-06T13:08:18;26.33;;;14.63;;
22129;SDS011;11231;50.746;4.272;2023-04-06T13:10:48;25.53;;;15.17;;
22129;SDS011;11231;50.746;4.272;2023-04-06T13:13:16;23.20;;;14.07;;
22129;SDS011;11231;50.746;4.272;2023-04-06T13:15:42;27.57;;;14.77;;
22129;SDS011;11231;50.746;4.272;2023-04-06T13:18:10;24.53;;;13.83;;
22129;SDS011;11231;50.746;4.272;2023-04-06T13:20:36;25.50;;;14.97;;
22129;SDS011;11231;50.746;4.272;2023-04-06T13:23:02;24.57;;;14.07;;
22129;SDS011;11231;50.746;4.272;2023-04-06T13:25:28;25.27;;;13.73;;
22129;SDS011;11231;50.746;4.272;2023-04-06T13:27:54;21.73;;;13.80;;
22129;SDS011;11231;50.746;4.272;2023-04-06T13:30:20;25.50;;;14.27;;
22129;SDS011;11231;50.746;4.272;2023-04-06T13:32:47;23.90;;;14.10;;
22129;SDS011;11231;50.746;4.272;2023-04-06T13:35:12;24.43;;;14.37;;
22129;SDS011;11231;50.746;4.272;2023-04-06T13:37:38;22.60;;;13.80;;
22129;SDS011;11231;50.746;4.272;2023-04-06T13:40:04;22.40;;;13.60;;
22129;SDS011;11231;50.746;4.272;2023-04-06T13:42:31;22.53;;;13.20;;
22129;SDS011;11231;50.746;4.272;2023-04-06T13:44:57;24.43;;;13.80;;
22129;SDS011;11231;50.746;4.272;2023-04-06T13:47:24;24.43;;;13.93;;
22129;SDS011;11231;50.746;4.272;2023-04-06T13:49:50;20.73;;;13.23;;
22129;SDS011;11231;50.746;4.272;2023-04-06T13:52:17;19.97;;;13.03;;
22129;SDS011;11231;50.746;4.272;2023-04-06T13:54:44;21.57;;;13.17;;
22129;SDS011;11231;50.746;4.272;2023-04-06T13:57:10;20.00;;;12.40;;
22129;SDS011;11231;50.746;4.272;2023-04-06T13:59:36;22.73;;;14.43;;
22129;SDS011;11231;50.746;4.272;2023-04-06T14:02:02;25.27;;;14.63;;
22129;SDS011;11231;50.746;4.272;2023-04-06T14:04:29;23.03;;;14.40;;
22129;SDS011;11231;50.746;4.272;2023-04-06T14:06:58;24.17;;;14.77;;
22129;SDS011;11231;50.746;4.272;2023-04-06T14:09:25;25.53;;;15.70;;
22129;SDS011;11231;50.746;4.272;2023-04-06T14:11:51;29.87;;;15.67;;
22129;SDS011;11231;50.746;4.272;2023-04-06T14:14:18;25.70;;;15.17;;
22129;SDS011;11231;50.746;4.272;2023-04-06T14:16:44;26.43;;;16.43;;
22129;SDS011;11231;50.746;4.272;2023-04-06T14:19:10;26.57;;;16.20;;
22129;SDS011;11231;50.746;4.272;2023-04-06T14:21:40;24.60;;;15.40;;
22129;SDS011;11231;50.746;4.272;2023-04-06T14:24:06;22.03;;;14.30;;
22129;SDS011;11231;50.746;4.272;2023-04-06T14:26:34;24.50;;;15.10;;
22129;SDS011;11231;50.746;4.272;2023-04-06T14:29:00;24.03;;;15.03;;
22129;SDS011;11231;50.746;4.272;2023-04-06T14:31:26;23.97;;;15.30;;
22129;SDS011;11231;50.746;4.272;2023-04-06T14:33:52;24.63;;;15.70;;
22129;SDS011;11231;50.746;4.272;2023-04-06T14:36:18;25.10;;;15.57;;